sensor_id;sensor_type;location;lat;lon;timestamp;pressure;altitude;pressure_sealevel;temperature
45976;BMP280;31696;42.668;23.322;2023-05-20T00:00:38;95038.50;;;12.65
45976;BMP280;31696;42.668;23.322;2023-05-20T00:02:38;95025.63;;;12.75
45976;BMP280;31696;42.668;23.322;2023-05-20T00:04:39;95033.25;;;12.73
45976;BMP280;31696;42.668;23.322;2023-05-20T00:06:40;95024.94;;;12.74
45976;BMP280;31696;42.668;23.322;2023-05-20T00:08:41;95025.63;;;12.75
45976;BMP280;31696;42.668;23.322;2023-05-20T00:10:41;95029.53;;;12.84
45976;BMP280;31696;42.668;23.322;2023-05-20T00:12:42;95034.88;;;12.61
45976;BMP280;31696;42.668;23.322;2023-05-20T00:14:42;95029.75;;;12.78
45976;BMP280;31696;42.668;23.322;2023-05-20T00:16:42;95027.31;;;12.80
45976;BMP280;31696;42.668;23.322;2023-05-20T00:18:43;95027.16;;;12.78
45976;BMP280;31696;42.668;23.322;2023-05-20T00:20:43;95031.22;;;12.64
45976;BMP280;31696;42.668;23.322;2023-05-20T00:22:43;95027.75;;;12.69
45976;BMP280;31696;42.668;23.322;2023-05-20T00:24:44;95018.97;;;12.82
45976;BMP280;31696;42.668;23.322;2023-05-20T00:26:44;95024.47;;;12.86
45976;BMP280;31696;42.668;23.322;2023-05-20T00:28:45;95023.16;;;12.77
45976;BMP280;31696;42.668;23.322;2023-05-20T00:30:45;95020.72;;;12.79
45976;BMP280;31696;42.668;23.322;2023-05-20T00:32:46;95017.22;;;12.84
45976;BMP280;31696;42.668;23.322;2023-05-20T00:34:55;95008.19;;;12.85
45976;BMP280;31696;42.668;23.322;2023-05-20T00:36:57;95017.53;;;12.88
45976;BMP280;31696;42.668;23.322;2023-05-20T00:38:58;95006.22;;;12.93
45976;BMP280;31696;42.668;23.322;2023-05-20T00:40:58;95009.72;;;12.56
45976;BMP280;31696;42.668;23.322;2023-05-20T00:42:58;95010.81;;;12.45
45976;BMP280;31696;42.668;23.322;2023-05-20T00:44:59;95011.16;;;12.42
45976;BMP280;31696;42.668;23.322;2023-05-20T00:47:00;95008.22;;;12.45
45976;BMP280;31696;42.668;23.322;2023-05-20T00:49:00;94993.13;;;12.44
45976;BMP280;31696;42.668;23.322;2023-05-20T00:51:01;95002.16;;;12.43
45976;BMP280;31696;42.668;23.322;2023-05-20T00:53:02;95000.03;;;12.49
45976;BMP280;31696;42.668;23.322;2023-05-20T00:55:02;95006.47;;;12.48
45976;BMP280;31696;42.668;23.322;2023-05-20T00:57:03;94998.66;;;12.48
45976;BMP280;31696;42.668;23.322;2023-05-20T00:59:05;94992.41;;;12.43
45976;BMP280;31696;42.668;23.322;2023-05-20T01:01:05;94991.16;;;12.52
45976;BMP280;31696;42.668;23.322;2023-05-20T01:03:06;94977.16;;;12.40
45976;BMP280;31696;42.668;23.322;2023-05-20T01:05:07;94980.25;;;12.46
45976;BMP280;31696;42.668;23.322;2023-05-20T01:07:07;95000.44;;;12.38
45976;BMP280;31696;42.668;23.322;2023-05-20T01:09:07;94995.03;;;12.36
45976;BMP280;31696;42.668;23.322;2023-05-20T01:11:30;94988.97;;;12.41
45976;BMP280;31696;42.668;23.322;2023-05-20T01:13:30;94988.44;;;12.42
45976;BMP280;31696;42.668;23.322;2023-05-20T01:15:32;94997.53;;;12.34
45976;BMP280;31696;42.668;23.322;2023-05-20T01:17:35;95000.47;;;12.30
45976;BMP280;31696;42.668;23.322;2023-05-20T01:19:39;95003.75;;;12.31
45976;BMP280;31696;42.668;23.322;2023-05-20T01:21:43;95002.16;;;12.43
45976;BMP280;31696;42.668;23.322;2023-05-20T01:23:44;95011.28;;;12.59
45976;BMP280;31696;42.668;23.322;2023-05-20T01:25:45;94997.59;;;12.51
45976;BMP280;31696;42.668;23.322;2023-05-20T01:27:47;95011.78;;;12.57
45976;BMP280;31696;42.668;23.322;2023-05-20T01:29:49;95000.03;;;12.49
45976;BMP280;31696;42.668;23.322;2023-05-20T01:31:50;94999.84;;;12.54
45976;BMP280;31696;42.668;23.322;2023-05-20T01:33:52;95005.63;;;11.90
45976;BMP280;31696;42.668;23.322;2023-05-20T01:35:55;95005.16;;;12.32
45976;BMP280;31696;42.668;23.322;2023-05-20T01:37:56;94997.34;;;12.32
45976;BMP280;31696;42.668;23.322;2023-05-20T01:39:57;94996.09;;;12.40
45976;BMP280;31696;42.668;23.322;2023-05-20T01:41:58;94999.66;;;12.20
45976;BMP280;31696;42.668;23.322;2023-05-20T01:44:00;94994.72;;;11.84
45976;BMP280;31696;42.668;23.322;2023-05-20T01:46:00;94999.88;;;11.99
45976;BMP280;31696;42.668;23.322;2023-05-20T01:48:01;94995.03;;;12.03
45976;BMP280;31696;42.668;23.322;2023-05-20T01:50:02;95000.25;;;11.96
45976;BMP280;31696;42.668;23.322;2023-05-20T01:52:03;94993.78;;;12.04
45976;BMP280;31696;42.668;23.322;2023-05-20T01:54:03;94987.22;;;12.03
45976;BMP280;31696;42.668;23.322;2023-05-20T01:56:04;95001.59;;;12.04
45976;BMP280;31696;42.668;23.322;2023-05-20T01:58:04;94991.19;;;12.04
45976;BMP280;31696;42.668;23.322;2023-05-20T02:00:05;94985.22;;;12.19
45976;BMP280;31696;42.668;23.322;2023-05-20T02:02:13;94982.28;;;12.23
45976;BMP280;31696;42.668;23.322;2023-05-20T02:04:15;94987.53;;;12.07
45976;BMP280;31696;42.668;23.322;2023-05-20T02:06:18;94991.63;;;11.71
45976;BMP280;31696;42.668;23.322;2023-05-20T02:08:18;94986.38;;;11.93
45976;BMP280;31696;42.668;23.322;2023-05-20T02:10:18;94986.22;;;11.91
45976;BMP280;31696;42.668;23.322;2023-05-20T02:12:19;94981.16;;;11.93
45976;BMP280;31696;42.668;23.322;2023-05-20T02:14:20;94972.31;;;11.96
45976;BMP280;31696;42.668;23.322;2023-05-20T02:16:20;94979.88;;;12.09
45976;BMP280;31696;42.668;23.322;2023-05-20T02:18:20;94976.63;;;12.01
45976;BMP280;31696;42.668;23.322;2023-05-20T02:20:21;94987.03;;;11.94
45976;BMP280;31696;42.668;23.322;2023-05-20T02:22:22;94988.81;;;11.91
45976;BMP280;31696;42.668;23.322;2023-05-20T02:24:22;94985.97;;;12.12
45976;BMP280;31696;42.668;23.322;2023-05-20T02:26:22;94976.94;;;12.13
45976;BMP280;31696;42.668;23.322;2023-05-20T02:28:24;94973.31;;;12.08
45976;BMP280;31696;42.668;23.322;2023-05-20T02:30:25;94979.69;;;12.15
45976;BMP280;31696;42.668;23.322;2023-05-20T02:32:26;94977.97;;;12.17
45976;BMP280;31696;42.668;23.322;2023-05-20T02:34:28;94982.88;;;12.06
45976;BMP280;31696;42.668;23.322;2023-05-20T02:36:29;94979.47;;;11.73
45976;BMP280;31696;42.668;23.322;2023-05-20T02:38:31;94977.06;;;11.68
45976;BMP280;31696;42.668;23.322;2023-05-20T02:40:32;94977.28;;;11.62
45976;BMP280;31696;42.668;23.322;2023-05-20T02:42:33;94967.00;;;11.72
45976;BMP280;31696;42.668;23.322;2023-05-20T02:44:34;94974.09;;;11.71
45976;BMP280;31696;42.668;23.322;2023-05-20T02:46:34;94971.34;;;11.69
45976;BMP280;31696;42.668;23.322;2023-05-20T02:48:35;94972.91;;;11.57
45976;BMP280;31696;42.668;23.322;2023-05-20T02:50:37;94973.44;;;11.63
45976;BMP280;31696;42.668;23.322;2023-05-20T02:52:37;94963.53;;;11.69
45976;BMP280;31696;42.668;23.322;2023-05-20T02:54:39;94968.38;;;11.65
45976;BMP280;31696;42.668;23.322;2023-05-20T02:56:39;94971.53;;;11.56
45976;BMP280;31696;42.668;23.322;2023-05-20T02:58:40;94977.28;;;11.24
45976;BMP280;31696;42.668;23.322;2023-05-20T03:00:40;94974.16;;;11.48
45976;BMP280;31696;42.668;23.322;2023-05-20T03:02:41;94970.34;;;11.42
45976;BMP280;31696;42.668;23.322;2023-05-20T03:04:41;94979.16;;;11.54
45976;BMP280;31696;42.668;23.322;2023-05-20T03:06:42;94970.84;;;11.55
45976;BMP280;31696;42.668;23.322;2023-05-20T03:08:43;94976.41;;;11.52
45976;BMP280;31696;42.668;23.322;2023-05-20T03:10:44;94984.91;;;11.52
45976;BMP280;31696;42.668;23.322;2023-05-20T03:12:44;94980.72;;;11.57
45976;BMP280;31696;42.668;23.322;2023-05-20T03:14:44;94985.41;;;11.51
45976;BMP280;31696;42.668;23.322;2023-05-20T03:16:46;94994.09;;;11.46
45976;BMP280;31696;42.668;23.322;2023-05-20T03:18:47;94990.09;;;11.37
45976;BMP280;31696;42.668;23.322;2023-05-20T03:20:48;94998.78;;;11.55
45976;BMP280;31696;42.668;23.322;2023-05-20T03:22:49;95001.19;;;11.53
45976;BMP280;31696;42.668;23.322;2023-05-20T03:24:49;94999.28;;;11.53
45976;BMP280;31696;42.668;23.322;2023-05-20T03:26:51;94994.06;;;11.53
45976;BMP280;31696;42.668;23.322;2023-05-20T03:28:52;94991.31;;;11.44
45976;BMP280;31696;42.668;23.322;2023-05-20T03:30:53;94994.94;;;11.56
45976;BMP280;31696;42.668;23.322;2023-05-20T03:32:54;95006.38;;;11.68
45976;BMP280;31696;42.668;23.322;2023-05-20T03:34:57;95000.66;;;11.70
45976;BMP280;31696;42.668;23.322;2023-05-20T03:36:59;95001.66;;;11.74
45976;BMP280;31696;42.668;23.322;2023-05-20T03:38:59;95003.03;;;11.90
45976;BMP280;31696;42.668;23.322;2023-05-20T03:41:02;95008.28;;;11.83
45976;BMP280;31696;42.668;23.322;2023-05-20T03:43:02;95003.75;;;11.76
45976;BMP280;31696;42.668;23.322;2023-05-20T03:45:03;95006.19;;;11.81
45976;BMP280;31696;42.668;23.322;2023-05-20T03:47:08;95008.28;;;11.75
45976;BMP280;31696;42.668;23.322;2023-05-20T03:49:08;95019.03;;;11.64
45976;BMP280;31696;42.668;23.322;2023-05-20T03:51:09;95016.25;;;11.77
45976;BMP280;31696;42.668;23.322;2023-05-20T03:53:09;95005.47;;;11.88
45976;BMP280;31696;42.668;23.322;2023-05-20T03:55:13;95008.97;;;11.83
45976;BMP280;31696;42.668;23.322;2023-05-20T03:57:14;95014.53;;;11.72
45976;BMP280;31696;42.668;23.322;2023-05-20T03:59:14;95011.38;;;11.81
45976;BMP280;31696;42.668;23.322;2023-05-20T04:01:15;95021.59;;;11.79
45976;BMP280;31696;42.668;23.322;2023-05-20T04:03:16;95020.91;;;11.79
45976;BMP280;31696;42.668;23.322;2023-05-20T04:05:18;95026.81;;;11.64
45976;BMP280;31696;42.668;23.322;2023-05-20T04:07:20;95024.56;;;11.76
45976;BMP280;31696;42.668;23.322;2023-05-20T04:09:20;95029.78;;;11.83
45976;BMP280;31696;42.668;23.322;2023-05-20T04:11:21;95027.66;;;11.89
45976;BMP280;31696;42.668;23.322;2023-05-20T04:13:23;95034.28;;;11.83
45976;BMP280;31696;42.668;23.322;2023-05-20T04:15:24;95037.06;;;11.92
45976;BMP280;31696;42.668;23.322;2023-05-20T04:17:28;95033.22;;;11.93
45976;BMP280;31696;42.668;23.322;2023-05-20T04:19:29;95041.69;;;11.94
45976;BMP280;31696;42.668;23.322;2023-05-20T04:21:29;95028.31;;;12.12
45976;BMP280;31696;42.668;23.322;2023-05-20T04:23:30;95029.34;;;12.09
45976;BMP280;31696;42.668;23.322;2023-05-20T04:25:31;95026.94;;;12.11
45976;BMP280;31696;42.668;23.322;2023-05-20T04:27:32;95019.25;;;12.21
45976;BMP280;31696;42.668;23.322;2023-05-20T04:29:33;95024.13;;;12.17
45976;BMP280;31696;42.668;23.322;2023-05-20T04:31:34;95023.41;;;12.24
45976;BMP280;31696;42.668;23.322;2023-05-20T04:33:34;95020.78;;;12.32
45976;BMP280;31696;42.668;23.322;2023-05-20T04:35:38;95023.06;;;12.28
45976;BMP280;31696;42.668;23.322;2023-05-20T04:37:42;95039.31;;;12.36
45976;BMP280;31696;42.668;23.322;2023-05-20T04:39:53;95031.28;;;12.49
45976;BMP280;31696;42.668;23.322;2023-05-20T04:41:53;95031.56;;;12.68
45976;BMP280;31696;42.668;23.322;2023-05-20T04:43:54;95039.72;;;12.64
45976;BMP280;31696;42.668;23.322;2023-05-20T04:45:58;95037.66;;;12.63
45976;BMP280;31696;42.668;23.322;2023-05-20T04:48:01;95052.00;;;12.79
45976;BMP280;31696;42.668;23.322;2023-05-20T04:50:01;95047.56;;;12.64
45976;BMP280;31696;42.668;23.322;2023-05-20T04:52:02;95044.66;;;12.85
45976;BMP280;31696;42.668;23.322;2023-05-20T04:54:03;95043.19;;;12.99
45976;BMP280;31696;42.668;23.322;2023-05-20T04:56:04;95046.28;;;13.05
45976;BMP280;31696;42.668;23.322;2023-05-20T04:58:05;95039.25;;;13.15
45976;BMP280;31696;42.668;23.322;2023-05-20T05:00:07;95031.91;;;13.21
45976;BMP280;31696;42.668;23.322;2023-05-20T05:02:09;95043.88;;;13.24
45976;BMP280;31696;42.668;23.322;2023-05-20T05:04:11;95043.97;;;13.34
45976;BMP280;31696;42.668;23.322;2023-05-20T05:06:12;95037.00;;;13.37
45976;BMP280;31696;42.668;23.322;2023-05-20T05:08:12;95034.84;;;13.43
45976;BMP280;31696;42.668;23.322;2023-05-20T05:10:17;95037.63;;;13.45
45976;BMP280;31696;42.668;23.322;2023-05-20T05:12:18;95046.03;;;13.36
45976;BMP280;31696;42.668;23.322;2023-05-20T05:14:18;95048.06;;;13.45
45976;BMP280;31696;42.668;23.322;2023-05-20T05:16:18;95048.72;;;13.70
45976;BMP280;31696;42.668;23.322;2023-05-20T05:18:19;95048.41;;;13.83
45976;BMP280;31696;42.668;23.322;2023-05-20T05:20:19;95045.78;;;14.00
45976;BMP280;31696;42.668;23.322;2023-05-20T05:22:20;95037.97;;;14.17
45976;BMP280;31696;42.668;23.322;2023-05-20T05:24:20;95037.09;;;14.32
45976;BMP280;31696;42.668;23.322;2023-05-20T05:26:21;95039.53;;;14.74
45976;BMP280;31696;42.668;23.322;2023-05-20T05:28:21;95037.66;;;14.40
45976;BMP280;31696;42.668;23.322;2023-05-20T05:30:22;95039.47;;;14.37
45976;BMP280;31696;42.668;23.322;2023-05-20T05:32:22;95035.94;;;14.25
45976;BMP280;31696;42.668;23.322;2023-05-20T05:34:23;95032.66;;;14.51
45976;BMP280;31696;42.668;23.322;2023-05-20T05:36:23;95027.72;;;14.56
45976;BMP280;31696;42.668;23.322;2023-05-20T05:38:25;95020.38;;;14.71
45976;BMP280;31696;42.668;23.322;2023-05-20T05:40:26;95026.63;;;14.85
45976;BMP280;31696;42.668;23.322;2023-05-20T05:42:27;95030.06;;;14.88
45976;BMP280;31696;42.668;23.322;2023-05-20T05:44:28;95022.63;;;15.40
45976;BMP280;31696;42.668;23.322;2023-05-20T05:46:29;95034.66;;;15.71
45976;BMP280;31696;42.668;23.322;2023-05-20T05:48:30;95035.94;;;16.30
45976;BMP280;31696;42.668;23.322;2023-05-20T05:50:30;95038.50;;;16.59
45976;BMP280;31696;42.668;23.322;2023-05-20T05:52:31;95028.78;;;17.02
45976;BMP280;31696;42.668;23.322;2023-05-20T05:54:31;95035.78;;;17.51
45976;BMP280;31696;42.668;23.322;2023-05-20T05:56:32;95023.03;;;17.78
45976;BMP280;31696;42.668;23.322;2023-05-20T05:58:32;95033.03;;;18.14
45976;BMP280;31696;42.668;23.322;2023-05-20T06:00:33;95025.78;;;18.48
45976;BMP280;31696;42.668;23.322;2023-05-20T06:02:33;95030.69;;;18.88
45976;BMP280;31696;42.668;23.322;2023-05-20T06:04:35;95016.81;;;19.47
45976;BMP280;31696;42.668;23.322;2023-05-20T06:06:36;95023.44;;;19.48
45976;BMP280;31696;42.668;23.322;2023-05-20T06:08:36;95006.00;;;19.55
45976;BMP280;31696;42.668;23.322;2023-05-20T06:10:37;95018.22;;;19.87
45976;BMP280;31696;42.668;23.322;2023-05-20T06:12:38;95012.13;;;20.10
45976;BMP280;31696;42.668;23.322;2023-05-20T06:14:38;95012.38;;;20.41
45976;BMP280;31696;42.668;23.322;2023-05-20T06:16:39;95015.66;;;20.28
45976;BMP280;31696;42.668;23.322;2023-05-20T06:18:40;94999.34;;;20.72
45976;BMP280;31696;42.668;23.322;2023-05-20T06:20:40;94954.53;;;21.01
45976;BMP280;31696;42.668;23.322;2023-05-20T06:22:41;94956.16;;;21.08
45976;BMP280;31696;42.668;23.322;2023-05-20T06:24:41;94958.19;;;21.39
45976;BMP280;31696;42.668;23.322;2023-05-20T06:26:41;94950.97;;;21.40
45976;BMP280;31696;42.668;23.322;2023-05-20T06:28:44;94954.22;;;21.54
45976;BMP280;31696;42.668;23.322;2023-05-20T06:30:44;94959.44;;;21.23
45976;BMP280;31696;42.668;23.322;2023-05-20T06:32:45;94952.50;;;22.07
45976;BMP280;31696;42.668;23.322;2023-05-20T06:34:45;94943.34;;;22.77
45976;BMP280;31696;42.668;23.322;2023-05-20T06:36:46;94952.19;;;21.68
45976;BMP280;31696;42.668;23.322;2023-05-20T06:38:46;94941.38;;;22.26
45976;BMP280;31696;42.668;23.322;2023-05-20T06:40:49;94980.31;;;22.57
45976;BMP280;31696;42.668;23.322;2023-05-20T06:42:50;94936.56;;;22.38
45976;BMP280;31696;42.668;23.322;2023-05-20T06:44:51;94932.44;;;22.33
45976;BMP280;31696;42.668;23.322;2023-05-20T06:47:04;94934.75;;;22.94
45976;BMP280;31696;42.668;23.322;2023-05-20T06:49:05;94941.66;;;23.01
45976;BMP280;31696;42.668;23.322;2023-05-20T06:51:06;94937.13;;;23.60
45976;BMP280;31696;42.668;23.322;2023-05-20T06:53:07;94921.81;;;22.84
45976;BMP280;31696;42.668;23.322;2023-05-20T06:55:08;94926.53;;;23.41
45976;BMP280;31696;42.668;23.322;2023-05-20T06:57:09;94933.78;;;23.40
45976;BMP280;31696;42.668;23.322;2023-05-20T06:59:09;94928.13;;;23.30
45976;BMP280;31696;42.668;23.322;2023-05-20T07:01:11;94935.41;;;24.28
45976;BMP280;31696;42.668;23.322;2023-05-20T07:03:13;94939.50;;;24.74
45976;BMP280;31696;42.668;23.322;2023-05-20T07:05:13;94945.31;;;23.29
45976;BMP280;31696;42.668;23.322;2023-05-20T07:07:14;94927.25;;;23.43
45976;BMP280;31696;42.668;23.322;2023-05-20T07:09:14;94928.09;;;22.75
45976;BMP280;31696;42.668;23.322;2023-05-20T07:11:15;94925.38;;;23.28
45976;BMP280;31696;42.668;23.322;2023-05-20T07:13:16;94929.72;;;23.37
45976;BMP280;31696;42.668;23.322;2023-05-20T07:15:16;94926.91;;;23.33
45976;BMP280;31696;42.668;23.322;2023-05-20T07:17:17;94925.38;;;23.08
45976;BMP280;31696;42.668;23.322;2023-05-20T07:19:19;94926.13;;;23.11
45976;BMP280;31696;42.668;23.322;2023-05-20T07:21:19;94925.84;;;23.79
45976;BMP280;31696;42.668;23.322;2023-05-20T07:23:35;94919.31;;;23.43
45976;BMP280;31696;42.668;23.322;2023-05-20T07:25:35;94922.19;;;23.49
45976;BMP280;31696;42.668;23.322;2023-05-20T07:27:36;94920.31;;;23.34
45976;BMP280;31696;42.668;23.322;2023-05-20T07:29:36;94909.91;;;23.20
45976;BMP280;31696;42.668;23.322;2023-05-20T07:31:37;94912.13;;;22.91
45976;BMP280;31696;42.668;23.322;2023-05-20T07:33:38;94913.34;;;23.43
45976;BMP280;31696;42.668;23.322;2023-05-20T07:35:38;94918.25;;;23.70
45976;BMP280;31696;42.668;23.322;2023-05-20T07:37:39;94918.19;;;24.29
45976;BMP280;31696;42.668;23.322;2023-05-20T07:39:40;94931.59;;;24.33
45976;BMP280;31696;42.668;23.322;2023-05-20T07:41:40;94923.81;;;23.97
45976;BMP280;31696;42.668;23.322;2023-05-20T07:43:41;94921.22;;;23.99
45976;BMP280;31696;42.668;23.322;2023-05-20T07:45:41;94922.56;;;24.20
45976;BMP280;31696;42.668;23.322;2023-05-20T07:47:42;94920.34;;;23.54
45976;BMP280;31696;42.668;23.322;2023-05-20T07:49:42;94928.25;;;23.52
45976;BMP280;31696;42.668;23.322;2023-05-20T07:51:43;94909.34;;;23.24
45976;BMP280;31696;42.668;23.322;2023-05-20T07:53:47;94912.88;;;23.48
45976;BMP280;31696;42.668;23.322;2023-05-20T07:55:47;94916.81;;;23.10
45976;BMP280;31696;42.668;23.322;2023-05-20T07:57:48;94906.41;;;23.53
45976;BMP280;31696;42.668;23.322;2023-05-20T07:59:49;94912.09;;;24.04
45976;BMP280;31696;42.668;23.322;2023-05-20T08:01:50;94909.28;;;23.98
45976;BMP280;31696;42.668;23.322;2023-05-20T08:03:52;94908.66;;;23.80
45976;BMP280;31696;42.668;23.322;2023-05-20T08:05:55;94901.38;;;24.00
45976;BMP280;31696;42.668;23.322;2023-05-20T08:07:55;94910.47;;;24.80
45976;BMP280;31696;42.668;23.322;2023-05-20T08:09:58;94914.59;;;23.98
45976;BMP280;31696;42.668;23.322;2023-05-20T08:12:01;94907.88;;;24.17
45976;BMP280;31696;42.668;23.322;2023-05-20T08:14:01;94904.91;;;24.07
45976;BMP280;31696;42.668;23.322;2023-05-20T08:16:06;94911.28;;;23.21
45976;BMP280;31696;42.668;23.322;2023-05-20T08:18:06;94903.03;;;23.70
45976;BMP280;31696;42.668;23.322;2023-05-20T08:20:07;94907.22;;;23.97
45976;BMP280;31696;42.668;23.322;2023-05-20T08:22:09;94897.66;;;23.68
45976;BMP280;31696;42.668;23.322;2023-05-20T08:24:09;94904.47;;;24.14
45976;BMP280;31696;42.668;23.322;2023-05-20T08:26:10;94901.31;;;24.40
45976;BMP280;31696;42.668;23.322;2023-05-20T08:28:14;94896.34;;;24.52
45976;BMP280;31696;42.668;23.322;2023-05-20T08:30:15;94890.81;;;23.42
45976;BMP280;31696;42.668;23.322;2023-05-20T08:32:15;94894.44;;;23.32
45976;BMP280;31696;42.668;23.322;2023-05-20T08:34:16;94892.63;;;23.76
45976;BMP280;31696;42.668;23.322;2023-05-20T08:36:16;94890.25;;;23.65
45976;BMP280;31696;42.668;23.322;2023-05-20T08:38:18;94897.03;;;24.09
45976;BMP280;31696;42.668;23.322;2023-05-20T08:40:21;94893.72;;;24.10
45976;BMP280;31696;42.668;23.322;2023-05-20T08:42:22;94896.22;;;24.69
45976;BMP280;31696;42.668;23.322;2023-05-20T08:44:23;94882.00;;;24.61
45976;BMP280;31696;42.668;23.322;2023-05-20T08:46:25;94891.72;;;23.89
45976;BMP280;31696;42.668;23.322;2023-05-20T08:48:25;94901.94;;;23.77
45976;BMP280;31696;42.668;23.322;2023-05-20T08:50:27;94896.59;;;24.17
45976;BMP280;31696;42.668;23.322;2023-05-20T08:52:27;94897.31;;;23.97
45976;BMP280;31696;42.668;23.322;2023-05-20T08:54:43;94900.03;;;23.60
45976;BMP280;31696;42.668;23.322;2023-05-20T08:56:45;94907.31;;;24.21
45976;BMP280;31696;42.668;23.322;2023-05-20T08:58:45;94896.28;;;23.87
45976;BMP280;31696;42.668;23.322;2023-05-20T09:00:46;94892.63;;;24.17
45976;BMP280;31696;42.668;23.322;2023-05-20T09:02:46;94899.06;;;23.32
45976;BMP280;31696;42.668;23.322;2023-05-20T09:04:47;94895.28;;;23.37
45976;BMP280;31696;42.668;23.322;2023-05-20T09:06:49;94894.25;;;23.66
45976;BMP280;31696;42.668;23.322;2023-05-20T09:08:50;94885.56;;;24.04
45976;BMP280;31696;42.668;23.322;2023-05-20T09:10:51;94883.16;;;23.71
45976;BMP280;31696;42.668;23.322;2023-05-20T09:12:51;94876.63;;;22.98
45976;BMP280;31696;42.668;23.322;2023-05-20T09:14:52;94883.66;;;23.66
45976;BMP280;31696;42.668;23.322;2023-05-20T09:16:52;94876.78;;;23.78
45976;BMP280;31696;42.668;23.322;2023-05-20T09:18:55;94873.78;;;22.92
45976;BMP280;31696;42.668;23.322;2023-05-20T09:20:55;94879.91;;;23.33
45976;BMP280;31696;42.668;23.322;2023-05-20T09:22:59;94859.00;;;22.16
45976;BMP280;31696;42.668;23.322;2023-05-20T09:25:00;94881.97;;;22.80
45976;BMP280;31696;42.668;23.322;2023-05-20T09:27:00;94865.50;;;22.13
45976;BMP280;31696;42.668;23.322;2023-05-20T09:29:01;94877.63;;;22.89
45976;BMP280;31696;42.668;23.322;2023-05-20T09:31:01;94867.22;;;22.75
45976;BMP280;31696;42.668;23.322;2023-05-20T09:33:03;94863.81;;;22.90
45976;BMP280;31696;42.668;23.322;2023-05-20T09:35:04;94861.78;;;22.71
45976;BMP280;31696;42.668;23.322;2023-05-20T09:37:05;94859.66;;;22.68
45976;BMP280;31696;42.668;23.322;2023-05-20T09:39:07;94861.66;;;23.04
45976;BMP280;31696;42.668;23.322;2023-05-20T09:41:12;94846.72;;;23.13
45976;BMP280;31696;42.668;23.322;2023-05-20T09:43:12;94875.56;;;23.42
45976;BMP280;31696;42.668;23.322;2023-05-20T09:45:13;94853.41;;;23.73
45976;BMP280;31696;42.668;23.322;2023-05-20T09:47:14;94849.06;;;23.42
45976;BMP280;31696;42.668;23.322;2023-05-20T09:49:15;94853.09;;;23.06
45976;BMP280;31696;42.668;23.322;2023-05-20T09:51:15;94845.59;;;22.81
45976;BMP280;31696;42.668;23.322;2023-05-20T09:53:16;94847.84;;;22.88
45976;BMP280;31696;42.668;23.322;2023-05-20T09:55:18;94847.50;;;22.98
45976;BMP280;31696;42.668;23.322;2023-05-20T09:57:18;94858.03;;;22.96
45976;BMP280;31696;42.668;23.322;2023-05-20T09:59:20;94848.59;;;22.91
45976;BMP280;31696;42.668;23.322;2023-05-20T10:01:20;94839.56;;;23.15
45976;BMP280;31696;42.668;23.322;2023-05-20T10:03:21;94845.66;;;22.30
45976;BMP280;31696;42.668;23.322;2023-05-20T10:05:24;94831.25;;;22.50
45976;BMP280;31696;42.668;23.322;2023-05-20T10:12:07;94825.25;;;22.50
45976;BMP280;31696;42.668;23.322;2023-05-20T10:20:30;94804.84;;;22.70
45976;BMP280;31696;42.668;23.322;2023-05-20T10:22:30;94799.00;;;22.74
45976;BMP280;31696;42.668;23.322;2023-05-20T10:24:34;94805.56;;;22.90
45976;BMP280;31696;42.668;23.322;2023-05-20T10:26:37;94803.97;;;22.83
45976;BMP280;31696;42.668;23.322;2023-05-20T10:28:39;94806.03;;;22.85
45976;BMP280;31696;42.668;23.322;2023-05-20T10:30:47;94798.06;;;22.85
45976;BMP280;31696;42.668;23.322;2023-05-20T10:32:51;94795.38;;;22.65
45976;BMP280;31696;42.668;23.322;2023-05-20T10:34:52;94797.78;;;22.41
45976;BMP280;31696;42.668;23.322;2023-05-20T10:38:53;94791.63;;;22.52
45976;BMP280;31696;42.668;23.322;2023-05-20T10:40:54;94779.09;;;22.35
45976;BMP280;31696;42.668;23.322;2023-05-20T10:42:56;94788.75;;;22.64
45976;BMP280;31696;42.668;23.322;2023-05-20T10:45:07;94773.19;;;22.37
45976;BMP280;31696;42.668;23.322;2023-05-20T10:47:08;94765.69;;;22.31
45976;BMP280;31696;42.668;23.322;2023-05-20T10:49:18;94785.84;;;22.58
45976;BMP280;31696;42.668;23.322;2023-05-20T10:51:21;94765.16;;;22.52
45976;BMP280;31696;42.668;23.322;2023-05-20T10:53:22;94767.16;;;22.72
45976;BMP280;31696;42.668;23.322;2023-05-20T10:55:23;94784.13;;;22.65
45976;BMP280;31696;42.668;23.322;2023-05-20T10:57:26;94775.63;;;22.68
45976;BMP280;31696;42.668;23.322;2023-05-20T10:59:27;94765.69;;;22.31
45976;BMP280;31696;42.668;23.322;2023-05-20T11:01:27;94765.03;;;22.48
45976;BMP280;31696;42.668;23.322;2023-05-20T11:03:28;94764.81;;;22.25
45976;BMP280;31696;42.668;23.322;2023-05-20T11:05:29;94758.22;;;22.08
45976;BMP280;31696;42.668;23.322;2023-05-20T11:07:30;94754.47;;;22.68
45976;BMP280;31696;42.668;23.322;2023-05-20T11:09:31;94756.50;;;22.70
45976;BMP280;31696;42.668;23.322;2023-05-20T11:11:32;94753.41;;;22.20
45976;BMP280;31696;42.668;23.322;2023-05-20T11:13:33;94746.03;;;22.36
45976;BMP280;31696;42.668;23.322;2023-05-20T11:15:34;94754.06;;;22.76
45976;BMP280;31696;42.668;23.322;2023-05-20T11:17:35;94753.53;;;22.79
45976;BMP280;31696;42.668;23.322;2023-05-20T11:19:36;94746.88;;;22.78
45976;BMP280;31696;42.668;23.322;2023-05-20T11:21:41;94752.00;;;22.54
45976;BMP280;31696;42.668;23.322;2023-05-20T11:23:41;94744.88;;;22.41
45976;BMP280;31696;42.668;23.322;2023-05-20T11:25:42;94739.34;;;21.98
45976;BMP280;31696;42.668;23.322;2023-05-20T11:27:42;94740.09;;;22.18
45976;BMP280;31696;42.668;23.322;2023-05-20T11:29:43;94727.69;;;22.40
45976;BMP280;31696;42.668;23.322;2023-05-20T11:31:44;94735.19;;;22.28
45976;BMP280;31696;42.668;23.322;2023-05-20T11:33:44;94727.81;;;22.27
45976;BMP280;31696;42.668;23.322;2023-05-20T11:35:46;94717.50;;;22.33
45976;BMP280;31696;42.668;23.322;2023-05-20T11:37:52;94771.56;;;22.65
45976;BMP280;31696;42.668;23.322;2023-05-20T11:40:05;94780.25;;;22.68
45976;BMP280;31696;42.668;23.322;2023-05-20T11:42:07;94778.84;;;22.47